createdAt,value
2022-09-20T00:01:12.758Z,9.6
2022-09-20T00:03:15.783Z,9.7
2022-09-20T00:05:23.712Z,9.7
2022-09-20T00:07:26.785Z,9.7
2022-09-20T00:09:29.886Z,9.7
2022-09-20T00:11:32.987Z,9.7
2022-09-20T00:13:36.119Z,9.8
2022-09-20T00:15:39.243Z,9.7
2022-09-20T00:17:42.350Z,9.8
2022-09-20T00:19:48.682Z,9.9
2022-09-20T00:21:51.788Z,10
2022-09-20T00:23:54.903Z,9.9
2022-09-20T00:25:58.036Z,10
2022-09-20T00:28:01.141Z,10
2022-09-20T00:30:04.277Z,10
2022-09-20T00:32:07.490Z,9.9
2022-09-20T00:36:16.812Z,10
2022-09-20T00:41:26.219Z,9.9
2022-09-20T00:43:29.339Z,10
2022-09-20T00:45:32.495Z,9.9
2022-09-20T00:47:38.792Z,9.9
2022-09-20T00:49:41.929Z,10
2022-09-20T00:51:45.040Z,10
2022-09-20T00:53:48.165Z,9.9
2022-09-20T00:55:51.297Z,9.9
2022-09-20T00:59:57.526Z,10
2022-09-20T01:02:03.953Z,9.8
2022-09-20T01:06:10.164Z,9.8
2022-09-20T01:08:13.210Z,9.9
2022-09-20T01:10:16.344Z,9.8
2022-09-20T01:12:19.435Z,9.8
2022-09-20T01:14:22.564Z,9.8
2022-09-20T01:16:28.924Z,9.7
2022-09-20T01:18:32.020Z,9.7
2022-09-20T01:20:35.129Z,9.7
2022-09-20T01:22:38.274Z,9.6
2022-09-20T01:28:47.619Z,9.8
2022-09-20T01:30:53.936Z,9.7
2022-09-20T01:32:57.079Z,9.7
2022-09-20T01:35:00.193Z,9.7
2022-09-20T01:36:03.343Z,9.8
2022-09-20T01:38:06.463Z,9.7
2022-09-20T01:40:09.690Z,9.8
2022-09-20T01:42:12.703Z,9.8
2022-09-20T01:44:19.032Z,9.8
2022-09-20T01:46:22.188Z,9.8
2022-09-20T01:48:25.278Z,9.8
2022-09-20T01:50:29.332Z,9.9
2022-09-20T01:52:32.456Z,9.8
2022-09-20T01:56:38.685Z,9.9
2022-09-20T01:58:46.893Z,9.9
2022-09-20T02:00:48.255Z,10
2022-09-20T02:02:51.341Z,10
2022-09-20T02:04:54.384Z,10.1
2022-09-20T02:06:57.503Z,10.2
2022-09-20T02:09:00.619Z,10
2022-09-20T02:11:03.742Z,10.1
2022-09-20T02:13:10.064Z,10.2
2022-09-20T02:15:13.206Z,10.3
2022-09-20T02:19:19.428Z,10.4
2022-09-20T02:21:22.532Z,10.3
2022-09-20T02:23:25.649Z,10.3
2022-09-20T02:25:28.782Z,10.4
2022-09-20T02:27:35.119Z,10.3
2022-09-20T02:29:38.239Z,10.5
2022-09-20T02:31:41.424Z,10.3
2022-09-20T02:34:03.392Z,10.4
2022-09-20T02:36:06.486Z,10.4
2022-09-20T02:38:09.604Z,10.4
2022-09-20T02:40:16.029Z,10.5
2022-09-20T02:42:19.079Z,10.5
2022-09-20T02:44:22.228Z,10.5
2022-09-20T02:46:25.321Z,10.5
2022-09-20T02:48:28.443Z,10.6
2022-09-20T02:50:31.566Z,10.5
2022-09-20T02:52:34.678Z,10.5
2022-09-20T02:54:41.004Z,10.6
2022-09-20T02:56:44.122Z,10.5
2022-09-20T02:58:47.228Z,10.5
2022-09-20T03:06:59.762Z,10.5
2022-09-20T03:09:06.068Z,10.5
2022-09-20T03:11:09.191Z,10.4
2022-09-20T03:13:12.307Z,10.4
2022-09-20T03:17:18.563Z,10.4
2022-09-20T03:21:24.803Z,10.3
2022-09-20T03:23:31.120Z,10.4
2022-09-20T03:25:34.251Z,10.2
2022-09-20T03:27:37.376Z,10.4
2022-09-20T03:28:40.513Z,10.3
2022-09-20T03:30:43.639Z,10.3
2022-09-20T03:32:46.785Z,10.2
2022-09-20T03:36:56.221Z,10.3
2022-09-20T03:38:59.342Z,10.2
2022-09-20T03:41:02.472Z,10.3
2022-09-20T03:43:05.579Z,10.3
2022-09-20T03:45:08.711Z,10.3
2022-09-20T03:47:11.846Z,10.4
2022-09-20T03:49:14.971Z,10.4
2022-09-20T03:51:21.303Z,10.4
2022-09-20T03:53:24.399Z,10.4
2022-09-20T03:55:27.547Z,10.3
2022-09-20T03:57:30.649Z,10.3
2022-09-20T03:59:33.786Z,10.4
2022-09-20T04:01:36.925Z,10.3
2022-09-20T04:03:40.008Z,10.3
2022-09-20T04:07:49.426Z,10.2
2022-09-20T04:13:58.797Z,10.2
2022-09-20T04:16:01.914Z,10
2022-09-20T04:18:05.027Z,10.1
2022-09-20T04:20:11.396Z,10.1
2022-09-20T04:25:20.768Z,10
2022-09-20T04:27:23.890Z,9.9
2022-09-20T04:29:27.011Z,10
2022-09-20T04:33:36.429Z,10
2022-09-20T04:35:39.562Z,10
2022-09-20T04:37:42.645Z,10
2022-09-20T04:39:45.778Z,10
2022-09-20T04:43:51.988Z,10.2
2022-09-20T04:45:55.160Z,10.4
2022-09-20T04:48:01.438Z,10.3
2022-09-20T04:50:04.550Z,10.3
2022-09-20T04:54:10.782Z,10.4
2022-09-20T04:56:13.899Z,10.4
2022-09-20T05:02:26.538Z,10.5
2022-09-20T05:06:32.696Z,10.5
2022-09-20T05:12:42.060Z,10.4
2022-09-20T05:16:51.516Z,10.4
2022-09-20T05:18:54.603Z,10.5
2022-09-20T05:24:03.979Z,10.5
2022-09-20T05:26:07.109Z,10.5
2022-09-20T05:28:10.234Z,10.5
2022-09-20T05:30:16.558Z,10.5
2022-09-20T05:32:19.658Z,10.4
2022-09-20T05:34:22.767Z,10.4
2022-09-20T05:36:25.882Z,10.4
2022-09-20T05:40:32.201Z,10.4
2022-09-20T05:42:35.219Z,10.4
2022-09-20T05:44:41.547Z,10.3
2022-09-20T05:46:44.677Z,10.4
2022-09-20T05:48:47.790Z,10.3
2022-09-20T05:50:50.897Z,10.3
2022-09-20T05:52:54.002Z,10.2
2022-09-20T05:54:57.110Z,10.3
2022-09-20T05:57:00.237Z,10.3
2022-09-20T05:59:09.962Z,10.4
2022-09-20T06:01:11.262Z,10.3
2022-09-20T06:03:14.293Z,10.3
2022-09-20T06:05:17.427Z,10.3
2022-09-20T06:07:20.541Z,10.2
2022-09-20T06:09:23.660Z,10.4
2022-09-20T06:11:26.775Z,10.3
2022-09-20T06:13:33.088Z,10.4
2022-09-20T06:15:36.220Z,10.4
2022-09-20T06:17:39.338Z,10.5
2022-09-20T06:22:04.325Z,10.5
2022-09-20T06:24:07.439Z,10.7
2022-09-20T06:26:13.754Z,10.8
2022-09-20T06:28:16.884Z,10.8
2022-09-20T06:30:20.046Z,10.9
2022-09-20T06:34:26.235Z,10.7
2022-09-20T06:36:29.366Z,10.9
2022-09-20T06:38:32.505Z,10.9
2022-09-20T06:40:38.872Z,10.9
2022-09-20T06:42:41.935Z,10.9
2022-09-20T06:44:45.055Z,11.1
2022-09-20T06:46:48.157Z,11
2022-09-20T06:48:51.276Z,11.2
2022-09-20T06:50:54.399Z,11.1
2022-09-20T06:52:57.539Z,11.1
2022-09-20T06:55:03.856Z,11.1
2022-09-20T06:57:06.973Z,11.2
2022-09-20T06:59:10.099Z,11.2
2022-09-20T07:01:13.341Z,11.4
2022-09-20T07:03:16.334Z,11.5
2022-09-20T07:07:22.577Z,11.5
2022-09-20T07:09:28.929Z,11.7
2022-09-20T07:11:32.031Z,11.6
2022-09-20T07:13:35.179Z,11.7
2022-09-20T07:14:38.327Z,11.8
2022-09-20T07:16:41.507Z,11.7
2022-09-20T07:18:44.574Z,11.7
2022-09-20T07:20:47.693Z,11.7
2022-09-20T07:22:54.054Z,11.8
2022-09-20T07:24:57.184Z,11.7
2022-09-20T07:29:03.431Z,11.8
2022-09-20T07:31:06.559Z,12.1
2022-09-20T07:33:09.689Z,13.1
2022-09-20T07:35:12.812Z,14.3
2022-09-20T07:37:19.144Z,14.2
2022-09-20T07:39:22.263Z,13.9
2022-09-20T07:41:25.398Z,13.6
2022-09-20T07:43:28.525Z,13.3
2022-09-20T07:45:31.685Z,13.1
2022-09-20T07:47:34.764Z,13.2
2022-09-20T07:49:37.883Z,13.8
2022-09-20T07:51:44.240Z,16.2
2022-09-20T07:53:47.367Z,16.5
2022-09-20T07:55:50.514Z,16.3
2022-09-20T07:57:53.615Z,15.5
2022-09-20T07:59:56.734Z,15.1
2022-09-20T08:01:59.916Z,14.7
2022-09-20T08:04:03.015Z,14.2
2022-09-20T08:06:09.375Z,14
2022-09-20T08:08:12.516Z,14.1
2022-09-20T08:10:15.640Z,14.2
2022-09-20T08:11:18.815Z,14.5
2022-09-20T08:15:25.079Z,15.6
2022-09-20T08:17:28.218Z,16.1
2022-09-20T08:19:34.576Z,15.7
2022-09-20T08:21:37.690Z,15.4
2022-09-20T08:23:40.823Z,15.3
2022-09-20T08:25:44.043Z,15.1
2022-09-20T08:27:46.869Z,14.8
2022-09-20T08:29:49.927Z,14.4
2022-09-20T08:31:52.999Z,14.4
2022-09-20T08:36:02.239Z,14.2
2022-09-20T08:44:14.564Z,14
2022-09-20T08:46:22.898Z,14
2022-09-20T08:48:23.846Z,14.1
2022-09-20T08:50:26.869Z,14.1
2022-09-20T08:52:29.952Z,14.2
2022-09-20T08:54:32.928Z,14.1
2022-09-20T08:56:35.975Z,14
2022-09-20T08:58:39.023Z,14
2022-09-20T09:00:42.149Z,14.1
2022-09-20T09:02:48.396Z,14.1
2022-09-20T09:04:51.529Z,14
2022-09-20T09:06:54.673Z,14.2
2022-09-20T09:07:57.746Z,14.5
2022-09-20T09:10:00.773Z,14.7
2022-09-20T09:12:03.797Z,14.7
2022-09-20T09:14:06.838Z,14.6
2022-09-20T09:16:13.135Z,14.9
2022-09-20T09:18:16.127Z,15.1
2022-09-20T09:20:19.137Z,15.3
2022-09-20T09:22:22.171Z,16.1
2022-09-20T09:24:25.181Z,17.3
2022-09-20T09:26:28.234Z,17.5
2022-09-20T09:28:31.233Z,17
2022-09-20T09:30:37.389Z,17.1
2022-09-20T09:34:43.435Z,17.7
2022-09-20T09:36:46.454Z,18.1
2022-09-20T09:38:49.474Z,18.2
2022-09-20T09:40:52.485Z,17.6
2022-09-20T09:42:55.498Z,16.7
2022-09-20T09:45:01.671Z,17
2022-09-20T09:47:04.680Z,17.2
2022-09-20T09:49:10.109Z,16.9
2022-09-20T09:51:10.705Z,16.6
2022-09-20T09:53:13.718Z,16.1
2022-09-20T09:55:16.722Z,16.5
2022-09-20T09:57:19.748Z,16.8
2022-09-20T09:59:25.882Z,16.8
2022-09-20T10:01:33.062Z,17
2022-09-20T10:03:31.916Z,16.8
2022-09-20T10:05:55.651Z,16.3
2022-09-20T10:07:58.671Z,16.2
2022-09-20T10:12:07.835Z,17.1
2022-09-20T10:14:10.849Z,16.7
2022-09-20T10:16:13.940Z,17.3
2022-09-20T10:18:16.871Z,17.5
2022-09-20T10:20:19.895Z,17.5
2022-09-20T10:22:22.903Z,16.9
2022-09-20T10:24:25.904Z,17
2022-09-20T10:26:32.033Z,17.3
2022-09-20T10:28:35.045Z,17.4
2022-09-20T10:30:38.070Z,16.7
2022-09-20T10:32:41.025Z,16.3
2022-09-20T10:34:44.007Z,15.9
2022-09-20T10:40:56.146Z,17.7
2022-09-20T10:42:59.151Z,17.8
2022-09-20T10:45:02.141Z,18.1
2022-09-20T10:47:05.145Z,17.2
2022-09-20T10:49:08.137Z,17.1
2022-09-20T10:51:11.136Z,16.7
2022-09-20T10:53:14.120Z,15.9
2022-09-20T10:55:20.225Z,16.5
2022-09-20T10:57:23.242Z,16.9
2022-09-20T10:59:26.247Z,17
2022-09-20T11:00:29.309Z,17.1
2022-09-20T11:02:32.341Z,17.1
2022-09-20T11:04:35.294Z,17.1
2022-09-20T11:06:38.291Z,16.7
2022-09-20T11:08:44.398Z,17.9
2022-09-20T11:10:47.381Z,17.8
2022-09-20T11:14:53.351Z,17.9
2022-09-20T11:16:56.394Z,17.5
2022-09-20T11:18:59.311Z,17.3
2022-09-20T11:21:02.312Z,17.2
2022-09-20T11:23:08.414Z,17.3
2022-09-20T11:27:14.353Z,17
2022-09-20T11:31:20.439Z,17.5
2022-09-20T11:33:23.303Z,18.1
2022-09-20T11:35:26.302Z,18.5
2022-09-20T11:37:32.402Z,18.2
2022-09-20T11:39:35.394Z,18.1
2022-09-20T11:45:44.546Z,17.2
2022-09-20T11:47:54.941Z,17
2022-09-20T11:51:56.384Z,17.1
2022-09-20T11:53:59.377Z,17.1
2022-09-20T11:56:03.948Z,16.8
2022-09-20T11:57:06.971Z,16.7
2022-09-20T11:59:09.933Z,16.6
2022-09-20T12:01:12.947Z,16.5
2022-09-20T12:03:16.018Z,16.3
2022-09-20T12:05:22.025Z,16.4
2022-09-20T12:07:25.042Z,16.4
2022-09-20T12:11:31.049Z,16.3
2022-09-20T12:13:34.046Z,16
2022-09-20T12:15:37.066Z,16.2
2022-09-20T12:25:55.290Z,16.9
2022-09-20T12:32:04.374Z,16.5
2022-09-20T12:36:13.448Z,16.8
2022-09-20T12:42:22.469Z,17.6
2022-09-20T12:44:25.481Z,17.1
2022-09-20T12:46:28.502Z,17.2
2022-09-20T12:48:34.636Z,17.2
2022-09-20T12:50:37.639Z,17.1
2022-09-20T12:52:40.674Z,16.8
2022-09-20T12:53:43.747Z,16.6
2022-09-20T12:55:46.726Z,16.7
2022-09-20T12:57:49.801Z,16.5
2022-09-20T12:59:52.767Z,16.2
2022-09-20T13:01:58.931Z,16.2
2022-09-20T13:04:01.918Z,16.2
2022-09-20T13:06:04.927Z,16.3
2022-09-20T13:08:07.939Z,16.5
2022-09-20T13:10:10.946Z,16.3
2022-09-20T13:12:13.968Z,16
2022-09-20T13:14:16.970Z,16.1
2022-09-20T13:16:23.161Z,16.4
2022-09-20T13:18:26.152Z,17.2
2022-09-20T13:20:29.161Z,20
2022-09-20T13:24:35.207Z,21.5
2022-09-20T13:26:38.229Z,23
2022-09-20T13:28:41.188Z,22.9
2022-09-20T13:30:47.296Z,23.7
2022-09-20T13:32:50.245Z,23.3
2022-09-20T13:34:53.214Z,23.3
2022-09-20T13:36:56.552Z,23.5
2022-09-20T13:38:59.901Z,24.2
2022-09-20T13:41:01.993Z,23.7
2022-09-20T13:43:22.587Z,22.9
2022-09-20T13:45:11.387Z,24.1
2022-09-20T13:49:17.103Z,21.7
2022-09-20T13:51:46.245Z,21.8
2022-09-20T13:53:49.105Z,21.5
2022-09-20T13:55:51.955Z,21.5
2022-09-20T13:57:57.945Z,22.4
2022-09-20T14:00:00.775Z,22.6
2022-09-20T14:02:04.153Z,22.1
2022-09-20T14:10:15.394Z,21.4
2022-09-20T14:12:21.376Z,21.9
2022-09-20T14:16:27.057Z,22.8
2022-09-20T14:18:29.893Z,23.7
2022-09-20T14:20:32.732Z,24.2
2022-09-20T14:24:38.419Z,23.2
2022-09-20T14:26:44.380Z,22.2
2022-09-20T14:28:47.227Z,23.1
2022-09-20T14:30:50.083Z,24.1
2022-09-20T14:32:52.894Z,24.7
2022-09-20T14:34:55.737Z,23.9
2022-09-20T14:36:58.557Z,23.4
2022-09-20T14:39:01.386Z,23.6
2022-09-20T14:41:07.369Z,24.3
2022-09-20T14:43:10.187Z,23.4
2022-09-20T14:45:13.020Z,22.7
2022-09-20T14:46:15.981Z,21.9
2022-09-20T14:48:18.823Z,21.5
2022-09-20T14:50:21.624Z,21.2
2022-09-20T14:54:30.434Z,19.9
2022-09-20T14:56:33.285Z,20.5
2022-09-20T14:58:36.133Z,21.7
2022-09-20T15:00:39.059Z,21.7
2022-09-20T15:02:41.908Z,21.7
2022-09-20T15:04:44.750Z,20
2022-09-20T15:06:47.608Z,19.7
2022-09-20T15:08:53.624Z,19.1
2022-09-20T15:10:56.540Z,19.2
2022-09-20T15:12:59.429Z,21.2
2022-09-20T15:15:02.336Z,22.7
2022-09-20T15:17:05.216Z,23.8
2022-09-20T15:19:09.009Z,23.8
2022-09-20T15:21:11.868Z,23.9
2022-09-20T15:23:17.885Z,23.6
2022-09-20T15:25:20.785Z,22.4
2022-09-20T15:29:26.568Z,23.2
2022-09-20T15:31:29.515Z,21.8
2022-09-20T15:35:35.234Z,21.3
2022-09-20T15:41:47.024Z,22.6
2022-09-20T15:42:50.044Z,23.2
2022-09-20T15:44:52.930Z,23.8
2022-09-20T15:46:55.788Z,23.6
2022-09-20T15:48:58.672Z,24.1
2022-09-20T15:51:04.681Z,22.8
2022-09-20T15:53:07.546Z,22.5
2022-09-20T15:55:10.453Z,22.2
2022-09-20T15:57:13.328Z,23.2
2022-09-20T15:59:16.184Z,23
2022-09-20T16:01:19.121Z,20.7
2022-09-20T16:03:21.969Z,21.4
2022-09-20T16:05:28.001Z,22.6
2022-09-20T16:11:36.681Z,21.2
2022-09-20T16:13:39.553Z,19.3
2022-09-20T16:15:42.445Z,18.3
2022-09-20T16:17:45.362Z,17.7
2022-09-20T16:26:00.188Z,17.2
2022-09-20T16:28:03.148Z,16.9
2022-09-20T16:32:09.056Z,16.8
2022-09-20T16:34:15.172Z,16.5
2022-09-20T16:36:18.126Z,16.5
2022-09-20T16:39:24.174Z,16.4
2022-09-20T16:41:27.191Z,16.4
2022-09-20T16:43:30.185Z,16.5
2022-09-20T16:47:39.356Z,16.6
2022-09-20T16:49:42.379Z,16.8
2022-09-20T16:53:48.417Z,17
2022-09-20T16:55:51.435Z,16.6
2022-09-20T16:57:54.456Z,16.2
2022-09-20T17:04:06.785Z,15.4
2022-09-20T17:06:09.731Z,15.4
2022-09-20T17:08:12.758Z,15.3
2022-09-20T17:10:15.797Z,15.3
2022-09-20T17:12:18.842Z,15.2
2022-09-20T17:14:21.911Z,15.1
2022-09-20T17:16:28.107Z,14.9
2022-09-20T17:18:31.087Z,14.9
2022-09-20T17:20:34.246Z,14.9
2022-09-20T17:22:37.378Z,14.7
2022-09-20T17:24:40.404Z,14.7
2022-09-20T17:26:43.585Z,14.6
2022-09-20T17:28:46.721Z,14.5
2022-09-20T17:30:53.085Z,14.5
2022-09-20T17:32:56.227Z,14.6
2022-09-20T17:34:59.371Z,14.4
2022-09-20T17:37:29.161Z,14.4
2022-09-20T17:39:32.302Z,14.5
2022-09-20T17:41:35.443Z,14.4
2022-09-20T17:43:41.829Z,14.2
2022-09-20T17:45:44.998Z,14.2
2022-09-20T17:47:48.126Z,14.2
2022-09-20T17:49:52.841Z,14.1
2022-09-20T17:51:55.959Z,13.9
2022-09-20T17:53:59.109Z,13.8
2022-09-20T17:56:02.272Z,13.8
2022-09-20T17:58:08.612Z,13.7
2022-09-20T18:00:11.760Z,13.7
2022-09-20T18:02:14.918Z,13.7
2022-09-20T18:04:18.060Z,13.5
2022-09-20T18:06:21.396Z,13.6
2022-09-20T18:08:24.356Z,13.6
2022-09-20T18:10:27.480Z,13.4
2022-09-20T18:12:33.816Z,13.3
2022-09-20T18:14:36.973Z,13.3
2022-09-20T18:16:40.147Z,13.3
2022-09-20T18:18:43.318Z,13.3
2022-09-20T18:20:46.436Z,13.1
2022-09-20T18:22:49.576Z,13.2
2022-09-20T18:24:52.736Z,12.9
2022-09-20T18:26:59.077Z,12.8
2022-09-20T18:29:02.235Z,12.9
2022-09-20T18:31:05.482Z,12.9
2022-09-20T18:32:08.557Z,12.8
2022-09-20T18:34:11.699Z,12.7
2022-09-20T18:36:14.872Z,12.8
2022-09-20T18:38:18.011Z,12.7
2022-09-20T18:40:24.406Z,12.7
2022-09-20T18:42:27.540Z,12.6
2022-09-20T18:44:30.676Z,12.6
2022-09-20T18:46:33.880Z,12.6
2022-09-20T18:48:36.977Z,12.5
2022-09-20T18:50:40.112Z,12.6
2022-09-20T18:52:43.257Z,12.5
2022-09-20T18:54:49.606Z,12.4
2022-09-20T18:56:52.763Z,12.3
2022-09-20T18:58:55.907Z,12.4
2022-09-20T19:00:59.132Z,12.4
2022-09-20T19:03:04.729Z,12.3
2022-09-20T19:05:05.336Z,12.3
2022-09-20T19:07:08.492Z,12.2
2022-09-20T19:09:14.842Z,12.1
2022-09-20T19:11:18.000Z,12.2
2022-09-20T19:13:21.143Z,12.1
2022-09-20T19:15:24.276Z,12.1
2022-09-20T19:17:27.432Z,12.1
2022-09-20T19:19:30.587Z,12.1
2022-09-20T19:21:33.740Z,12
2022-09-20T19:23:40.089Z,12
2022-09-20T19:25:43.226Z,12.1
2022-09-20T19:27:46.384Z,12
2022-09-20T19:28:49.575Z,12.1
2022-09-20T19:30:52.717Z,12.1
2022-09-20T19:32:55.867Z,11.9
2022-09-20T19:34:59.031Z,12
2022-09-20T19:37:05.388Z,11.9
2022-09-20T19:39:08.601Z,11.9
2022-09-20T19:41:11.659Z,12
2022-09-20T19:43:14.820Z,12
2022-09-20T19:51:30.631Z,11.8
2022-09-20T19:55:36.920Z,11.7
2022-09-20T19:57:40.051Z,11.7
2022-09-20T19:59:43.201Z,11.6
2022-09-20T20:01:46.405Z,11.6
2022-09-20T20:03:49.507Z,11.6
2022-09-20T20:07:58.994Z,11.7
2022-09-20T20:10:02.143Z,11.6
2022-09-20T20:12:05.292Z,11.6
2022-09-20T20:14:08.444Z,11.5
2022-09-20T20:16:11.737Z,11.6
2022-09-20T20:18:16.779Z,11.6
2022-09-20T20:20:21.068Z,11.6
2022-09-20T20:25:30.536Z,11.7
2022-09-20T20:27:33.682Z,11.7
2022-09-20T20:29:36.836Z,11.5
2022-09-20T20:33:46.318Z,11.4
2022-09-20T20:35:49.454Z,11.5
2022-09-20T20:37:52.593Z,11.4
2022-09-20T20:39:55.748Z,11.5
2022-09-20T20:44:02.050Z,11.4
2022-09-20T20:48:11.535Z,11.3
2022-09-20T20:50:14.695Z,11.4
2022-09-20T20:54:20.960Z,11.4
2022-09-20T20:58:27.248Z,11.4
2022-09-20T21:00:30.388Z,11.4
2022-09-20T21:02:36.807Z,11.3
2022-09-20T21:04:39.913Z,11.4
2022-09-20T21:06:43.062Z,11.3
2022-09-20T21:08:49.256Z,11.4
2022-09-20T21:10:49.354Z,11.3
2022-09-20T21:14:55.608Z,11.2
2022-09-20T21:21:08.270Z,11
2022-09-20T21:23:38.149Z,11
2022-09-20T21:25:41.288Z,10.8
2022-09-20T21:27:44.448Z,10.8
2022-09-20T21:29:50.799Z,10.8
2022-09-20T21:31:53.952Z,10.7
2022-09-20T21:33:57.182Z,10.8
2022-09-20T21:36:00.203Z,10.7
2022-09-20T21:38:03.353Z,10.6
2022-09-20T21:40:06.540Z,10.6
2022-09-20T21:42:09.621Z,10.5
2022-09-20T21:44:16.024Z,10.4
2022-09-20T21:46:19.280Z,10.5
2022-09-20T21:48:22.270Z,10.4
2022-09-20T21:56:34.824Z,10.5
2022-09-20T21:58:41.174Z,10.5
2022-09-20T22:00:44.322Z,10.4
2022-09-20T22:02:47.517Z,10.4
2022-09-20T22:04:50.590Z,10.3
2022-09-20T22:08:56.873Z,10.3
2022-09-20T22:11:00.011Z,10.3
2022-09-20T22:15:09.513Z,10.2
2022-09-20T22:17:12.611Z,10.1
2022-09-20T22:18:15.790Z,10.1
2022-09-20T22:20:18.921Z,10.2
2022-09-20T22:22:22.064Z,10.1
2022-09-20T22:24:25.233Z,10.1
2022-09-20T22:26:31.543Z,10.1
2022-09-20T22:30:37.908Z,10
2022-09-20T22:32:40.944Z,9.9
2022-09-20T22:34:44.093Z,9.9
2022-09-20T22:36:47.244Z,9.9
2022-09-20T22:38:50.354Z,9.8
2022-09-20T22:40:56.704Z,9.7
2022-09-20T22:42:59.833Z,9.9
2022-09-20T22:45:02.977Z,9.8
2022-09-20T22:47:06.123Z,9.7
2022-09-20T22:49:09.221Z,9.7
2022-09-20T22:51:12.357Z,9.7
2022-09-20T22:53:15.467Z,9.7
2022-09-20T22:55:21.838Z,9.7
2022-09-20T22:57:24.951Z,9.7
2022-09-20T22:59:28.091Z,9.6
2022-09-20T23:01:31.292Z,9.6
2022-09-20T23:03:34.412Z,9.6
2022-09-20T23:05:37.484Z,9.6
2022-09-20T23:07:40.624Z,9.7
2022-09-20T23:09:46.965Z,9.6
2022-09-20T23:11:50.090Z,9.7
2022-09-20T23:13:53.232Z,9.6
2022-09-20T23:14:56.411Z,9.7
2022-09-20T23:16:59.627Z,9.8
2022-09-20T23:19:02.678Z,9.7
2022-09-20T23:21:05.803Z,9.7
2022-09-20T23:23:12.159Z,9.9
2022-09-20T23:25:15.289Z,9.9
2022-09-20T23:27:18.417Z,9.8
2022-09-20T23:29:21.552Z,9.9
2022-09-20T23:31:24.675Z,9.8
2022-09-20T23:33:27.788Z,9.9
2022-09-20T23:35:30.934Z,9.8
2022-09-20T23:37:37.281Z,9.6
2022-09-20T23:39:40.420Z,9.6
2022-09-20T23:41:48.373Z,9.7
2022-09-20T23:43:46.580Z,9.7
2022-09-20T23:45:51.346Z,9.6
2022-09-20T23:47:54.389Z,9.6
2022-09-20T23:49:57.526Z,9.6
2022-09-20T23:52:03.870Z,9.5
2022-09-20T23:54:07.010Z,9.6
2022-09-20T23:56:10.261Z,9.7
2022-09-20T23:58:13.274Z,9.7
